Time;durP1;ratioP1;P1;durP2;ratioP2;P2;SDS_P1;SDS_P2;PMS_P1;PMS_P2;Temp;Humidity;BMP_temperature;BMP_pressure;BME280_temperature;BME280_humidity;BME280_pressure;Samples;Min_cycle;Max_cycle;Signal;HPM_P1;HPM_P2
2021/07/20 00:01:09;;;;;;;10.48;5.00;;;13.20;99.90;;;;;;4873751;29;20586;-87
2021/07/20 00:03:35;;;;;;;11.68;5.65;;;13.20;99.90;;;;;;4873890;29;20034;-87
2021/07/20 00:06:01;;;;;;;10.82;5.15;;;13.20;99.90;;;;;;4873669;29;20113;-88
2021/07/20 00:08:27;;;;;;;11.05;5.70;;;13.20;99.90;;;;;;4873692;29;20134;-87
2021/07/20 00:10:56;;;;;;;8.50;4.57;;;13.20;99.90;;;;;;4873817;29;20128;-87
2021/07/20 00:13:22;;;;;;;9.50;4.35;;;13.10;99.90;;;;;;4873592;29;20144;-87
2021/07/20 00:15:51;;;;;;;9.85;4.32;;;13.10;99.90;;;;;;4873237;29;20064;-87
2021/07/20 00:18:33;;;;;;;12.13;5.50;;;13.10;99.90;;;;;;4873333;29;20036;-86
2021/07/20 00:20:58;;;;;;;7.85;4.63;;;13.10;99.90;;;;;;4873568;29;20033;-87
2021/07/20 00:23:24;;;;;;;9.60;5.30;;;13.10;99.90;;;;;;4857898;29;20070;-86
2021/07/20 00:25:50;;;;;;;8.98;4.50;;;13.10;99.90;;;;;;4890925;29;20067;-87
2021/07/20 00:28:21;;;;;;;13.23;6.63;;;13.10;99.90;;;;;;4911484;29;20059;-86
2021/07/20 00:30:48;;;;;;;10.20;5.13;;;13.10;99.90;;;;;;4911194;29;20597;-87
2021/07/20 00:33:14;;;;;;;13.80;6.72;;;13.10;99.90;;;;;;4927081;29;20036;-86
2021/07/20 00:35:40;;;;;;;13.90;5.97;;;13.10;99.90;;;;;;4926911;29;20035;-86
2021/07/20 00:38:06;;;;;;;12.32;5.80;;;13.00;99.90;;;;;;4927110;29;20063;-85
2021/07/20 00:40:33;;;;;;;13.23;6.15;;;13.10;99.90;;;;;;4912558;29;20020;-87
2021/07/20 00:43:04;;;;;;;10.48;4.85;;;13.10;99.90;;;;;;4926945;29;20048;-86
2021/07/20 00:45:31;;;;;;;13.02;5.38;;;13.00;99.90;;;;;;4926611;29;20033;-86
2021/07/20 00:47:59;;;;;;;12.68;5.95;;;13.00;99.90;;;;;;4926718;29;20037;-86
2021/07/20 00:50:36;;;;;;;12.15;5.57;;;13.00;99.90;;;;;;4911023;29;20145;-87
2021/07/20 00:53:06;;;;;;;12.35;5.53;;;13.00;99.90;;;;;;4926908;29;20036;-86
2021/07/20 00:55:36;;;;;;;12.38;5.85;;;13.00;99.90;;;;;;4910489;29;20404;-88
2021/07/20 00:58:16;;;;;;;12.13;5.47;;;13.00;99.90;;;;;;4910404;29;20048;-86
2021/07/20 01:00:42;;;;;;;9.98;4.85;;;12.90;99.90;;;;;;4910562;29;20039;-86
2021/07/20 01:03:08;;;;;;;11.38;5.25;;;12.90;99.90;;;;;;4879308;29;20061;-86
2021/07/20 01:05:36;;;;;;;10.60;6.05;;;12.80;99.90;;;;;;4879706;29;20044;-87
2021/07/20 01:08:11;;;;;;;12.43;5.80;;;12.90;99.90;;;;;;4911757;29;20043;-85
2021/07/20 01:10:42;;;;;;;12.77;5.60;;;12.90;99.90;;;;;;4911810;29;20036;-87
2021/07/20 01:13:12;;;;;;;11.20;4.70;;;12.80;99.90;;;;;;4910661;29;20071;-87
2021/07/20 01:15:40;;;;;;;10.88;5.45;;;12.70;99.90;;;;;;4910466;29;20033;-87
2021/07/20 01:18:14;;;;;;;11.35;5.30;;;12.60;99.90;;;;;;4879737;29;20032;-87
2021/07/20 01:20:40;;;;;;;14.40;7.05;;;12.60;99.90;;;;;;4895218;29;20068;-87
2021/07/20 01:23:21;;;;;;;13.90;6.32;;;12.50;99.90;;;;;;4879989;29;20025;-87
2021/07/20 01:25:50;;;;;;;12.63;6.32;;;12.40;99.90;;;;;;4895547;29;20072;-87
2021/07/20 01:28:24;;;;;;;12.82;5.95;;;12.50;99.90;;;;;;4926660;29;20028;-87
2021/07/20 01:31:16;;;;;;;14.82;6.00;;;12.40;99.90;;;;;;4894995;29;20044;-87
2021/07/20 01:33:46;;;;;;;11.05;5.03;;;12.40;99.90;;;;;;4878867;29;20033;-87
2021/07/20 01:36:16;;;;;;;13.25;5.88;;;12.40;99.90;;;;;;4894961;29;20032;-87
2021/07/20 01:38:49;;;;;;;15.77;6.22;;;12.40;99.90;;;;;;4909962;29;20028;-87
2021/07/20 01:41:17;;;;;;;9.65;5.47;;;12.40;99.90;;;;;;4910543;29;20029;-87
2021/07/20 01:43:47;;;;;;;12.23;5.35;;;12.40;99.90;;;;;;4910490;29;20048;-87
2021/07/20 01:46:15;;;;;;;13.18;5.72;;;12.50;99.90;;;;;;4894734;29;20095;-86
2021/07/20 01:48:48;;;;;;;11.88;5.57;;;12.40;99.90;;;;;;4894484;29;20485;-86
2021/07/20 01:51:18;;;;;;;11.82;5.20;;;12.40;99.90;;;;;;4910341;29;20036;-86
2021/07/20 01:53:47;;;;;;;14.07;5.82;;;12.40;99.90;;;;;;4894665;29;20099;-87
2021/07/20 01:56:13;;;;;;;12.77;5.95;;;12.40;99.90;;;;;;4925751;29;20056;-87
2021/07/20 01:58:43;;;;;;;15.15;6.32;;;12.40;99.90;;;;;;4910237;29;20079;-86
2021/07/20 02:01:45;;;;;;;14.07;5.07;;;12.40;99.90;;;;;;4910441;29;20669;-87
2021/07/20 02:08:10;;;;;;;10.90;5.30;;;12.40;99.90;;;;;;4908380;29;20185;-87
2021/07/20 02:10:15;;;;;;;13.07;6.00;;;12.40;99.90;;;;;;4910023;29;20032;-87
2021/07/20 02:13:03;;;;;;;12.32;5.13;;;12.30;99.90;;;;;;4925911;29;20032;-87
2021/07/20 02:15:51;;;;;;;12.95;5.75;;;12.30;99.90;;;;;;4925842;29;20044;-87
2021/07/20 02:18:28;;;;;;;10.88;5.28;;;12.30;99.90;;;;;;4928832;29;20029;-86
2021/07/20 02:21:01;;;;;;;11.68;5.55;;;12.20;99.90;;;;;;4914182;29;20052;-86
2021/07/20 02:23:37;;;;;;;12.33;6.53;;;12.10;99.90;;;;;;4929501;29;20135;-87
2021/07/20 02:26:04;;;;;;;13.70;6.90;;;12.20;99.90;;;;;;4929491;29;20305;-86
2021/07/20 02:28:35;;;;;;;16.70;6.95;;;12.10;99.90;;;;;;4929505;29;20111;-87
2021/07/20 02:31:03;;;;;;;12.85;6.05;;;12.10;99.90;;;;;;4913596;29;20039;-87
2021/07/20 02:33:33;;;;;;;14.15;6.80;;;12.10;99.90;;;;;;4913234;29;20485;-87
2021/07/20 02:36:00;;;;;;;13.65;6.60;;;12.00;99.90;;;;;;4913746;29;20039;-86
2021/07/20 02:38:31;;;;;;;14.57;6.30;;;12.00;99.90;;;;;;4913347;29;20036;-87
2021/07/20 02:40:59;;;;;;;12.52;5.60;;;11.90;99.90;;;;;;4913496;29;20032;-86
2021/07/20 02:43:26;;;;;;;13.30;5.70;;;11.90;99.90;;;;;;4929320;29;20401;-87
2021/07/20 02:46:34;;;;;;;15.57;6.90;;;11.80;99.90;;;;;;4912868;29;20040;-85
2021/07/20 02:49:01;;;;;;;12.38;5.72;;;11.80;99.90;;;;;;4837824;29;20060;-87
2021/07/20 02:51:27;;;;;;;12.57;6.13;;;11.70;99.90;;;;;;4823016;29;20511;-86
2021/07/20 02:53:57;;;;;;;14.60;6.20;;;11.70;99.90;;;;;;4823023;29;20042;-87
2021/07/20 02:56:25;;;;;;;14.55;6.65;;;11.60;99.90;;;;;;4807907;29;20047;-87
2021/07/20 02:59:06;;;;;;;14.95;7.00;;;11.70;99.90;;;;;;4823195;29;20034;-86
2021/07/20 03:01:51;;;;;;;13.85;6.45;;;11.60;99.90;;;;;;4825125;29;20053;-86
2021/07/20 03:04:17;;;;;;;13.57;5.72;;;11.60;99.90;;;;;;4822752;29;20038;-87
2021/07/20 03:06:48;;;;;;;14.55;6.65;;;11.60;99.90;;;;;;4822736;29;20122;-86
2021/07/20 03:09:18;;;;;;;15.35;6.57;;;11.60;99.90;;;;;;4822764;29;20034;-86
2021/07/20 03:11:50;;;;;;;13.98;6.07;;;11.60;99.90;;;;;;4823089;29;20034;-86
2021/07/20 03:14:22;;;;;;;11.43;5.63;;;11.60;99.90;;;;;;4822871;29;20064;-86
2021/07/20 03:16:59;;;;;;;15.45;6.00;;;11.60;99.90;;;;;;4840888;29;20105;-87
2021/07/20 03:19:34;;;;;;;14.57;6.82;;;11.60;99.90;;;;;;4840898;29;20049;-86
2021/07/20 03:22:07;;;;;;;14.18;6.70;;;11.50;99.90;;;;;;4841099;29;20038;-87
2021/07/20 03:24:39;;;;;;;12.73;6.28;;;11.50;99.90;;;;;;4840849;29;20034;-86
2021/07/20 03:27:07;;;;;;;15.63;6.55;;;11.50;99.90;;;;;;4907674;29;20056;-87
2021/07/20 03:29:42;;;;;;;14.55;6.45;;;11.40;99.90;;;;;;4929530;29;20028;-87
2021/07/20 03:32:15;;;;;;;13.10;5.97;;;11.40;99.90;;;;;;4915391;29;20035;-87
2021/07/20 03:34:43;;;;;;;10.18;5.88;;;11.40;99.90;;;;;;4931105;29;20366;-86
2021/07/20 03:37:10;;;;;;;13.25;6.35;;;11.40;99.90;;;;;;4931359;29;20035;-87
2021/07/20 03:39:40;;;;;;;14.13;6.50;;;11.40;99.90;;;;;;4931329;29;20028;-87
2021/07/20 03:42:09;;;;;;;12.63;6.13;;;11.40;99.90;;;;;;4931454;29;20047;-87
2021/07/20 03:44:35;;;;;;;13.45;5.70;;;11.30;99.90;;;;;;4915253;29;20100;-87
2021/07/20 03:47:02;;;;;;;14.93;7.00;;;11.30;99.90;;;;;;4915182;29;20059;-87
2021/07/20 03:49:33;;;;;;;13.68;6.60;;;11.30;99.90;;;;;;4915616;29;20024;-86
2021/07/20 03:52:02;;;;;;;15.90;5.93;;;11.30;99.90;;;;;;4915358;29;20043;-87
2021/07/20 03:54:31;;;;;;;10.98;5.82;;;11.50;99.90;;;;;;4915440;29;20048;-87
2021/07/20 03:57:00;;;;;;;12.40;5.82;;;11.60;99.90;;;;;;4914941;29;20056;-87
2021/07/20 03:59:34;;;;;;;14.45;5.75;;;11.60;99.90;;;;;;4915032;29;20350;-87
2021/07/20 04:02:20;;;;;;;;;;;11.50;99.90;;;;;;4931141;29;20119;-87
2021/07/20 04:04:48;;;;;;;13.70;5.22;;;11.50;99.90;;;;;;4930148;29;19911;-86
2021/07/20 04:07:20;;;;;;;12.98;5.72;;;11.50;99.90;;;;;;4929996;29;20079;-86
2021/07/20 04:10:00;;;;;;;15.15;6.18;;;11.50;99.90;;;;;;4928521;29;20028;-87
2021/07/20 04:12:47;;;;;;;12.50;5.60;;;11.50;99.90;;;;;;4930443;29;20040;-87
2021/07/20 04:15:27;;;;;;;14.90;6.65;;;11.50;99.90;;;;;;4927720;29;20032;-87
2021/07/20 04:18:12;;;;;;;14.50;6.95;;;11.50;99.90;;;;;;4928060;29;20047;-87
2021/07/20 04:20:39;;;;;;;10.88;5.75;;;11.50;99.90;;;;;;4929782;29;20052;-87
2021/07/20 04:23:07;;;;;;;14.23;6.22;;;11.50;99.90;;;;;;4913857;29;20039;-86
2021/07/20 04:25:43;;;;;;;15.52;7.18;;;11.60;99.90;;;;;;4913879;29;20051;-87
2021/07/20 04:28:15;;;;;;;15.30;6.85;;;11.50;99.90;;;;;;4914161;29;20035;-87
2021/07/20 04:30:43;;;;;;;16.40;6.13;;;11.50;99.90;;;;;;4929867;29;20032;-86
2021/07/20 04:33:28;;;;;;;12.48;5.95;;;11.60;99.90;;;;;;4929875;29;20096;-86
2021/07/20 04:36:13;;;;;;;15.35;5.78;;;11.70;99.90;;;;;;4892159;29;20122;-87
2021/07/20 04:38:40;;;;;;;15.90;7.32;;;11.80;99.90;;;;;;4899382;29;20033;-87
2021/07/20 04:41:07;;;;;;;16.45;6.63;;;11.90;99.90;;;;;;4876074;29;20027;-87
2021/07/20 04:43:34;;;;;;;20.50;6.57;;;12.00;99.90;;;;;;4892249;29;20041;-85
2021/07/20 04:46:21;;;;;;;19.42;8.20;;;12.00;99.90;;;;;;4896193;29;20122;-88
2021/07/20 04:48:49;;;;;;;15.77;6.80;;;12.10;99.90;;;;;;4834662;29;20148;-85
2021/07/20 04:51:23;;;;;;;15.57;6.75;;;12.20;99.90;;;;;;4850603;29;20053;-86
2021/07/20 04:53:50;;;;;;;17.33;7.07;;;12.30;99.90;;;;;;4832959;29;20043;-86
2021/07/20 04:56:21;;;;;;;18.60;7.18;;;12.40;99.90;;;;;;4801998;29;20066;-86
2021/07/20 04:58:52;;;;;;;15.23;7.03;;;12.50;99.90;;;;;;4802425;29;20090;-86
2021/07/20 05:01:18;;;;;;;17.27;8.75;;;12.50;99.90;;;;;;4831996;29;20076;-86
2021/07/20 05:03:45;;;;;;;18.05;8.90;;;12.60;99.90;;;;;;4801832;29;20122;-85
2021/07/20 05:06:17;;;;;;;19.27;9.38;;;12.60;99.90;;;;;;4802141;29;20057;-85
2021/07/20 05:08:51;;;;;;;17.30;7.75;;;12.80;99.90;;;;;;4802140;29;20039;-86
2021/07/20 05:11:20;;;;;;;18.58;7.22;;;12.90;99.90;;;;;;4815129;29;20528;-86
2021/07/20 05:13:47;;;;;;;16.38;6.85;;;13.00;99.90;;;;;;4833565;29;20145;-85
2021/07/20 05:16:14;;;;;;;15.90;7.20;;;13.00;99.90;;;;;;4837786;29;20049;-84
2021/07/20 05:18:52;;;;;;;16.10;7.60;;;13.20;99.90;;;;;;4838980;29;20042;-86
2021/07/20 05:21:38;;;;;;;13.32;5.88;;;13.30;99.90;;;;;;4815446;29;20187;-85
2021/07/20 05:24:06;;;;;;;13.77;6.93;;;13.30;99.90;;;;;;4830455;29;20035;-86
2021/07/20 05:27:02;;;;;;;14.98;6.75;;;13.30;99.90;;;;;;4891824;29;20059;-86
2021/07/20 05:29:30;;;;;;;15.70;8.05;;;13.40;99.90;;;;;;4890246;29;20029;-85
2021/07/20 05:31:59;;;;;;;15.68;7.63;;;13.40;99.90;;;;;;4905832;29;20483;-86
2021/07/20 05:34:26;;;;;;;16.50;7.47;;;13.50;99.90;;;;;;4875874;29;20056;-86
2021/07/20 05:36:53;;;;;;;17.05;7.35;;;13.60;99.90;;;;;;4875782;29;20033;-86
2021/07/20 05:39:19;;;;;;;16.77;7.20;;;13.60;99.90;;;;;;4890268;29;20033;-87
2021/07/20 05:42:11;;;;;;;15.77;7.68;;;13.70;99.90;;;;;;4899874;29;20557;-86
2021/07/20 05:44:41;;;;;;;20.67;8.95;;;13.70;99.90;;;;;;4890051;29;20071;-86
2021/07/20 05:47:08;;;;;;;20.10;8.73;;;13.90;99.90;;;;;;4897946;29;20041;-87
2021/07/20 05:49:35;;;;;;;14.48;6.93;;;14.00;99.90;;;;;;4892748;29;20024;-87
2021/07/20 05:52:02;;;;;;;18.48;8.52;;;14.00;99.90;;;;;;4891329;29;20033;-87
2021/07/20 05:54:29;;;;;;;14.50;7.18;;;14.10;99.90;;;;;;4908554;29;20033;-85
2021/07/20 05:57:09;;;;;;;13.90;6.65;;;14.20;99.90;;;;;;4892948;29;20108;-86
2021/07/20 05:59:49;;;;;;;14.25;6.65;;;14.30;99.90;;;;;;4907058;29;20114;-86
2021/07/20 06:02:39;;;;;;;16.65;6.97;;;14.40;99.90;;;;;;4902265;29;20092;-84
2021/07/20 06:05:12;;;;;;;13.73;6.82;;;14.30;99.90;;;;;;4893421;29;20033;-86
2021/07/20 06:07:38;;;;;;;12.63;5.95;;;14.30;99.90;;;;;;4910320;29;20102;-85
2021/07/20 06:10:07;;;;;;;13.40;6.20;;;14.30;99.90;;;;;;4909256;29;20033;-86
2021/07/20 06:12:33;;;;;;;13.48;6.85;;;14.40;99.90;;;;;;4909229;29;20028;-85
2021/07/20 06:15:00;;;;;;;14.52;6.97;;;14.50;99.90;;;;;;4911095;29;20057;-87
2021/07/20 06:17:27;;;;;;;12.88;6.45;;;14.70;99.90;;;;;;4927747;29;20373;-87
2021/07/20 06:19:56;;;;;;;11.10;6.05;;;14.90;99.90;;;;;;4912230;29;20036;-86
2021/07/20 06:22:23;;;;;;;12.63;6.10;;;15.00;99.90;;;;;;4928086;29;20051;-85
2021/07/20 06:24:57;;;;;;;11.30;5.57;;;15.10;99.90;;;;;;4926891;29;20028;-87
2021/07/20 06:27:26;;;;;;;14.13;6.38;;;15.50;99.90;;;;;;4927723;29;20039;-86
2021/07/20 06:29:54;;;;;;;14.27;6.43;;;15.60;99.90;;;;;;4927666;29;20067;-85
2021/07/20 06:32:22;;;;;;;10.32;4.72;;;15.50;99.90;;;;;;4928020;29;20112;-85
2021/07/20 06:34:49;;;;;;;9.80;5.47;;;15.60;99.90;;;;;;4927487;29;20121;-86
2021/07/20 06:37:16;;;;;;;11.02;5.55;;;15.50;99.90;;;;;;4927646;29;20056;-86
2021/07/20 06:39:43;;;;;;;11.75;5.25;;;15.50;99.90;;;;;;4927365;29;20417;-86
2021/07/20 06:42:10;;;;;;;12.00;5.75;;;15.40;99.90;;;;;;4927842;29;20036;-85
2021/07/20 06:44:37;;;;;;;13.20;5.32;;;15.50;99.90;;;;;;4927546;29;20047;-86
2021/07/20 06:47:04;;;;;;;10.70;5.35;;;16.00;99.90;;;;;;4927095;29;20079;-85
2021/07/20 06:49:32;;;;;;;11.55;5.00;;;16.00;99.90;;;;;;4927319;29;20036;-88
2021/07/20 06:51:57;;;;;;;11.05;5.10;;;16.10;99.90;;;;;;4923598;29;20051;-85
2021/07/20 06:54:23;;;;;;;8.38;4.38;;;16.70;99.90;;;;;;4891910;29;20028;-85
2021/07/20 06:56:54;;;;;;;12.32;6.25;;;17.00;99.90;;;;;;4907998;29;20302;-84
2021/07/20 06:59:24;;;;;;;10.35;4.97;;;17.10;99.90;;;;;;4907464;29;20033;-85
2021/07/20 07:01:51;;;;;;;11.55;4.70;;;17.30;99.90;;;;;;4908081;29;20037;-85
2021/07/20 07:04:46;;;;;;;9.25;5.05;;;17.40;99.90;;;;;;4910539;29;20037;-85
2021/07/20 07:07:12;;;;;;;10.25;5.57;;;17.20;99.90;;;;;;4910997;29;20052;-85
2021/07/20 07:09:39;;;;;;;10.48;5.63;;;17.10;99.90;;;;;;4911179;29;20036;-86
2021/07/20 07:12:06;;;;;;;9.73;5.15;;;17.40;99.90;;;;;;4911164;29;20064;-86
2021/07/20 07:14:32;;;;;;;9.45;4.95;;;17.70;99.90;;;;;;4912160;29;20097;-86
2021/07/20 07:17:01;;;;;;;9.60;4.70;;;17.90;99.90;;;;;;4928845;29;20036;-85
2021/07/20 07:19:27;;;;;;;9.10;4.40;;;18.00;99.90;;;;;;4930099;29;20087;-85
2021/07/20 07:21:53;;;;;;;11.70;5.07;;;18.10;99.90;;;;;;4930112;29;20115;-85
2021/07/20 07:24:20;;;;;;;9.38;5.72;;;18.00;99.90;;;;;;4929899;29;20032;-86
2021/07/20 07:26:49;;;;;;;9.90;5.50;;;18.40;99.90;;;;;;4929898;29;20055;-86
2021/07/20 07:29:17;;;;;;;8.88;4.78;;;18.50;99.90;;;;;;4929709;29;20032;-86
2021/07/20 07:31:45;;;;;;;10.70;5.18;;;18.60;99.90;;;;;;4914120;29;20036;-85
2021/07/20 07:34:11;;;;;;;9.35;4.65;;;18.60;99.90;;;;;;4929731;29;20425;-86
2021/07/20 07:36:42;;;;;;;8.93;4.95;;;18.80;99.90;;;;;;4929783;29;20028;-85
2021/07/20 07:39:10;;;;;;;10.38;4.68;;;18.90;99.90;;;;;;4929474;29;20036;-86
2021/07/20 07:41:39;;;;;;;9.02;5.10;;;19.00;99.90;;;;;;4929827;29;20028;-86
2021/07/20 07:44:11;;;;;;;9.90;4.72;;;19.00;99.90;;;;;;4929501;29;20051;-86
2021/07/20 07:46:40;;;;;;;9.02;5.03;;;19.10;99.90;;;;;;4913944;29;20100;-86
2021/07/20 07:49:08;;;;;;;9.38;4.63;;;18.90;99.90;;;;;;4930670;29;20036;-85
2021/07/20 07:51:34;;;;;;;8.18;4.45;;;19.00;99.90;;;;;;4929263;29;20100;-86
2021/07/20 07:54:01;;;;;;;9.32;5.13;;;19.00;99.90;;;;;;4910423;29;20104;-86
2021/07/20 07:56:31;;;;;;;7.57;4.55;;;19.00;99.90;;;;;;4911716;29;20048;-87
2021/07/20 07:58:59;;;;;;;7.78;3.88;;;19.40;99.90;;;;;;4911597;29;20029;-86
2021/07/20 08:01:26;;;;;;;8.65;4.25;;;19.50;99.90;;;;;;4911432;29;20052;-86
2021/07/20 08:03:54;;;;;;;10.15;4.40;;;19.20;99.90;;;;;;4910077;29;20047;-87
2021/07/20 08:06:22;;;;;;;8.85;4.28;;;19.60;99.90;;;;;;4910430;29;20081;-86
2021/07/20 08:08:53;;;;;;;9.32;4.65;;;19.70;99.90;;;;;;4910546;29;20032;-87
2021/07/20 08:11:22;;;;;;;10.07;4.35;;;19.10;99.90;;;;;;4910513;29;20032;-86
2021/07/20 08:13:48;;;;;;;6.60;3.67;;;19.60;99.90;;;;;;4910448;29;20489;-86
2021/07/20 08:16:15;;;;;;;6.57;3.53;;;19.80;99.90;;;;;;4921388;29;20032;-86
2021/07/20 08:18:43;;;;;;;6.40;3.70;;;19.30;99.90;;;;;;4929282;29;20063;-88
2021/07/20 08:21:08;;;;;;;7.13;2.88;;;19.40;99.90;;;;;;4929247;29;20044;-86
2021/07/20 08:23:35;;;;;;;5.88;3.53;;;19.40;99.90;;;;;;4928943;29;20102;-87
2021/07/20 08:26:18;;;;;;;5.00;3.15;;;20.00;99.90;;;;;;4928948;29;20072;-87
2021/07/20 08:28:50;;;;;;;4.43;2.85;;;20.00;99.90;;;;;;4928886;29;20040;-87
2021/07/20 08:31:17;;;;;;;7.57;4.68;;;20.00;99.90;;;;;;4929075;29;20036;-86
2021/07/20 08:33:45;;;;;;;7.47;3.42;;;19.80;99.90;;;;;;4916548;29;20037;-87
2021/07/20 08:36:15;;;;;;;5.93;3.38;;;19.50;99.90;;;;;;4926002;29;20397;-87
2021/07/20 08:38:44;;;;;;;7.10;3.50;;;20.30;99.90;;;;;;4925738;29;20040;-87
2021/07/20 08:41:23;;;;;;;6.50;3.05;;;20.60;99.90;;;;;;4894293;29;20040;-87
2021/07/20 08:44:16;;;;;;;6.93;3.28;;;20.80;99.90;;;;;;4894209;29;20033;-86
2021/07/20 08:49:59;;;;;;;5.33;2.97;;;20.70;99.90;;;;;;4911360;29;20052;-86
2021/07/20 08:52:32;;;;;;;5.68;3.35;;;21.10;99.90;;;;;;4935640;29;20032;-87
2021/07/20 08:55:04;;;;;;;7.13;3.50;;;21.00;99.90;;;;;;4931759;29;20051;-86
2021/07/20 08:57:43;;;;;;;6.07;3.22;;;20.60;99.90;;;;;;4948628;29;20038;-86
2021/07/20 09:00:15;;;;;;;5.32;2.85;;;20.10;99.90;;;;;;4947506;29;20032;-85
2021/07/20 09:03:07;;;;;;;6.22;3.20;;;20.80;99.90;;;;;;4947446;29;20052;-86
2021/07/20 09:05:47;;;;;;;5.68;3.03;;;21.20;99.90;;;;;;4931325;29;20063;-86
2021/07/20 09:08:26;;;;;;;5.80;2.72;;;21.50;99.90;;;;;;4948691;29;20043;-86
2021/07/20 09:11:10;;;;;;;7.13;4.25;;;21.70;99.90;;;;;;4931626;29;20040;-87
2021/07/20 09:13:39;;;;;;;5.30;2.83;;;20.80;99.90;;;;;;4947066;29;20032;-86
2021/07/20 09:16:20;;;;;;;6.03;3.30;;;20.50;99.90;;;;;;4919976;29;20039;-86
2021/07/20 09:18:51;;;;;;;4.60;2.88;;;20.90;99.90;;;;;;4928317;29;20287;-86
2021/07/20 09:21:20;;;;;;;5.97;3.47;;;21.20;99.90;;;;;;4929588;29;20035;-83
2021/07/20 09:24:03;;;;;;;4.68;2.90;;;21.30;99.90;;;;;;4912304;29;20039;-84
2021/07/20 09:26:37;;;;;;;5.15;3.03;;;21.90;99.90;;;;;;4927964;29;20044;-84
2021/07/20 09:29:19;;;;;;;5.57;3.15;;;21.60;99.90;;;;;;4928085;29;20028;-86
2021/07/20 09:32:00;;;;;;;5.88;3.45;;;22.10;99.90;;;;;;4927887;29;20039;-85
2021/07/20 09:34:40;;;;;;;8.20;3.03;;;21.30;99.90;;;;;;4927942;29;20028;-86
2021/07/20 09:37:10;;;;;;;5.15;2.35;;;21.20;99.90;;;;;;4927735;29;20040;-86
2021/07/20 09:39:59;;;;;;;5.22;3.10;;;21.80;99.90;;;;;;4912163;29;20112;-87
2021/07/20 09:42:52;;;;;;;6.50;3.20;;;20.60;99.90;;;;;;4927916;29;20043;-88
2021/07/20 09:45:26;;;;;;;6.68;3.65;;;20.30;99.90;;;;;;4912019;29;20032;-86
2021/07/20 09:48:33;;;;;;;8.23;4.10;;;20.60;99.90;;;;;;4913024;29;20124;-88
2021/07/20 09:51:23;;;;;;;5.18;3.05;;;20.40;99.90;;;;;;4928875;29;20036;-87
2021/07/20 09:54:17;;;;;;;4.55;2.38;;;20.50;99.90;;;;;;4945385;29;20046;-87
2021/07/20 09:56:52;;;;;;;5.32;3.10;;;21.20;99.90;;;;;;4907468;29;20044;-86
2021/07/20 09:59:43;;;;;;;5.90;2.90;;;20.90;99.90;;;;;;4947052;29;20031;-88
2021/07/20 10:02:39;;;;;;;7.72;3.33;;;20.20;99.90;;;;;;4946693;29;20032;-88
2021/07/20 10:05:10;;;;;;;6.53;4.18;;;19.60;99.90;;;;;;4946727;29;20076;-88
2021/07/20 10:08:03;;;;;;;10.32;4.32;;;19.80;99.90;;;;;;4946451;29;20063;-88
2021/07/20 10:10:38;;;;;;;6.32;3.65;;;20.50;99.90;;;;;;4930712;29;20138;-87
2021/07/20 10:13:17;;;;;;;6.82;3.55;;;20.50;99.90;;;;;;4946357;29;20036;-87
2021/07/20 10:16:18;;;;;;;8.13;4.05;;;20.50;99.90;;;;;;4927492;29;20033;-87
2021/07/20 10:19:07;;;;;;;6.65;4.00;;;20.40;99.90;;;;;;4927390;29;20047;-87
2021/07/20 10:21:37;;;;;;;5.90;2.92;;;20.50;99.90;;;;;;4927297;29;20032;-87
2021/07/20 10:24:13;;;;;;;5.97;3.05;;;21.10;99.90;;;;;;4895849;29;20044;-87
2021/07/20 10:26:46;;;;;;;6.07;2.88;;;21.20;99.90;;;;;;4927455;29;20509;-87
2021/07/20 10:29:27;;;;;;;5.15;2.58;;;22.00;99.90;;;;;;4911450;29;20040;-87
2021/07/20 10:32:06;;;;;;;5.60;2.72;;;22.30;99.90;;;;;;4911351;29;20043;-87
2021/07/20 10:34:32;;;;;;;6.38;3.40;;;21.60;99.90;;;;;;4927343;29;20113;-87
2021/07/20 10:37:10;;;;;;;6.97;3.78;;;21.90;99.90;;;;;;4911076;29;20028;-87
2021/07/20 10:39:59;;;;;;;6.68;3.00;;;21.50;99.90;;;;;;4914884;29;20071;-87
2021/07/20 10:42:42;;;;;;;4.85;2.45;;;21.20;99.90;;;;;;4930976;29;20036;-88
2021/07/20 10:45:11;;;;;;;4.28;2.00;;;21.20;99.90;;;;;;4914818;29;20040;-88
2021/07/20 10:47:56;;;;;;;7.72;3.20;;;21.50;99.90;;;;;;4914488;23;20076;-86
2021/07/20 10:50:54;;;;;;;6.13;4.07;;;21.20;99.90;;;;;;4896727;29;20036;-87
2021/07/20 10:53:45;;;;;;;7.35;3.28;;;20.40;99.90;;;;;;4926465;29;20090;-87
2021/07/20 10:56:39;;;;;;;6.05;3.03;;;20.60;99.90;;;;;;4899675;29;20040;-87
2021/07/20 10:59:36;;;;;;;6.90;3.22;;;21.80;99.90;;;;;;4930745;29;20119;-87
2021/07/20 11:02:27;;;;;;;5.35;2.25;;;22.20;99.90;;;;;;4915178;29;20084;-87
2021/07/20 11:04:57;;;;;;;4.78;2.45;;;22.10;99.90;;;;;;4899559;29;20040;-86
2021/07/20 11:07:38;;;;;;;4.72;2.38;;;22.50;99.90;;;;;;4899494;29;20051;-87
2021/07/20 11:10:12;;;;;;;3.38;1.50;;;23.50;99.90;;;;;;4899586;29;20121;-87
2021/07/20 11:12:41;;;;;;;3.38;1.85;;;22.80;99.90;;;;;;4899294;29;20095;-86
2021/07/20 11:15:07;;;;;;;4.93;2.38;;;22.60;99.90;;;;;;4899379;29;20028;-87
2021/07/20 11:17:36;;;;;;;5.32;2.90;;;22.80;99.90;;;;;;4914640;29;20068;-86
2021/07/20 11:20:07;;;;;;;5.93;2.57;;;22.00;99.90;;;;;;4899276;29;20028;-85
2021/07/20 11:22:34;;;;;;;5.75;2.97;;;21.90;99.90;;;;;;4898998;29;20040;-85
2021/07/20 11:25:01;;;;;;;6.32;3.05;;;22.40;99.90;;;;;;4930268;29;20035;-88
2021/07/20 11:27:28;;;;;;;4.28;2.45;;;22.70;99.90;;;;;;4914350;29;20140;-88
2021/07/20 11:29:54;;;;;;;6.72;2.35;;;22.60;99.90;;;;;;4898889;29;20036;-86
2021/07/20 11:32:27;;;;;;;4.63;2.58;;;22.80;99.90;;;;;;4898881;29;20095;-87
2021/07/20 11:35:09;;;;;;;5.47;2.20;;;22.80;99.90;;;;;;4896914;29;20363;-86
2021/07/20 11:37:43;;;;;;;6.88;3.28;;;23.50;99.90;;;;;;4895367;29;20187;-86
2021/07/20 11:40:15;;;;;;;3.13;1.50;;;23.70;99.90;;;;;;4879904;29;20032;-87
2021/07/20 11:43:09;;;;;;;5.35;2.97;;;23.50;99.90;;;;;;4880068;29;20029;-86
2021/07/20 11:45:59;;;;;;;4.75;3.17;;;22.30;99.90;;;;;;4879039;29;20037;-87
2021/07/20 11:48:30;;;;;;;4.50;2.28;;;21.80;99.90;;;;;;4838390;29;20065;-87
2021/07/20 11:51:13;;;;;;;4.63;2.85;;;22.20;99.90;;;;;;4837683;29;20088;-88
2021/07/20 11:54:09;;;;;;;5.90;3.33;;;22.20;99.90;;;;;;4831009;29;20069;-91
2021/07/20 11:56:49;;;;;;;4.20;2.33;;;23.00;99.90;;;;;;4873208;29;20290;-93
2021/07/20 11:59:33;;;;;;;5.35;2.63;;;23.40;99.90;;;;;;4872464;29;20033;-92
2021/07/20 12:02:32;;;;;;;7.35;3.15;;;23.50;99.90;;;;;;4872485;29;20052;-90
2021/07/20 12:05:25;;;;;;;7.32;2.35;;;23.50;99.90;;;;;;4872449;29;20033;-91
2021/07/20 12:07:56;;;;;;;6.93;2.83;;;23.50;99.90;;;;;;4872239;29;20124;-92
2021/07/20 12:10:40;;;;;;;3.83;2.22;;;23.10;99.90;;;;;;4871900;29;20065;-92
2021/07/20 12:13:11;;;;;;;3.42;1.98;;;23.20;99.90;;;;;;4872252;29;20052;-91
2021/07/20 12:15:37;;;;;;;3.63;2.30;;;23.00;99.90;;;;;;4872192;29;20038;-90
2021/07/20 12:18:04;;;;;;;3.45;1.40;;;23.00;99.90;;;;;;4872298;29;20049;-88
2021/07/20 12:20:31;;;;;;;6.65;3.30;;;22.20;99.90;;;;;;4872242;29;20089;-89
2021/07/20 12:22:58;;;;;;;8.15;3.50;;;21.70;99.90;;;;;;4872150;29;20133;-93
2021/07/20 12:25:26;;;;;;;4.50;1.85;;;22.20;99.90;;;;;;4891277;29;20043;-92
2021/07/20 12:27:54;;;;;;;6.50;3.30;;;22.10;99.90;;;;;;4912976;29;20492;-92
2021/07/20 12:30:23;;;;;;;4.57;2.10;;;22.40;99.90;;;;;;4913111;29;20039;-92
2021/07/20 12:32:49;;;;;;;7.35;3.45;;;22.90;99.90;;;;;;4897690;29;20126;-93
2021/07/20 12:35:20;;;;;;;5.57;3.67;;;22.20;99.90;;;;;;4897657;29;20056;-93
2021/07/20 12:38:00;;;;;;;6.53;3.25;;;21.60;99.90;;;;;;4897640;29;20043;-91
2021/07/20 12:40:26;;;;;;;6.45;3.60;;;21.50;99.90;;;;;;4898100;29;20111;-91
2021/07/20 12:42:54;;;;;;;5.65;3.67;;;21.80;99.90;;;;;;4897575;29;20039;-89
2021/07/20 12:45:22;;;;;;;4.00;1.88;;;22.10;99.90;;;;;;4897610;29;20039;-92
2021/07/20 12:47:49;;;;;;;3.90;2.15;;;22.90;99.90;;;;;;4921055;23;20071;-91
2021/07/20 12:50:20;;;;;;;5.40;3.10;;;22.70;99.90;;;;;;4913469;29;20040;-91
2021/07/20 12:52:48;;;;;;;4.82;1.73;;;22.60;99.90;;;;;;4898132;29;20052;-91
2021/07/20 12:55:18;;;;;;;3.85;2.05;;;22.60;99.90;;;;;;4897880;29;20115;-91
2021/07/20 12:57:52;;;;;;;4.82;1.60;;;22.30;99.90;;;;;;4913823;29;20043;-92
2021/07/20 13:00:26;;;;;;;4.10;1.88;;;22.80;99.90;;;;;;4913368;29;20072;-91
2021/07/20 13:02:55;;;;;;;3.60;1.67;;;23.40;99.90;;;;;;4913576;29;20039;-93
2021/07/20 13:05:24;;;;;;;4.30;1.70;;;23.70;99.90;;;;;;4913471;29;20036;-91
2021/07/20 13:07:50;;;;;;;3.92;1.80;;;23.60;99.90;;;;;;4897663;29;20048;-92
2021/07/20 13:10:17;;;;;;;3.00;1.40;;;23.80;99.90;;;;;;4897609;29;20083;-90
2021/07/20 13:12:45;;;;;;;3.38;1.50;;;23.60;99.90;;;;;;4913432;29;20472;-88
2021/07/20 13:15:13;;;;;;;4.22;1.45;;;23.60;99.90;;;;;;4913285;29;20039;-88
2021/07/20 13:17:39;;;;;;;4.72;1.63;;;23.00;99.90;;;;;;4912897;29;20040;-92